Time;durP1;ratioP1;P1;durP2;ratioP2;P2;SDS_P1;SDS_P2;PMS_P1;PMS_P2;Temp;Humidity;BMP_temperature;BMP_pressure;BME280_temperature;BME280_humidity;BME280_pressure;Samples;Min_cycle;Max_cycle;Signal;HPM_P1;HPM_P2
2024/01/10 00:01:34;;;;;;;16.07;6.33;;;;;;;;;;4902307;29;20416;-53
2024/01/10 00:04:00;;;;;;;23.80;5.87;;;;;;;;;;4906090;29;20184;-52
2024/01/10 00:06:26;;;;;;;20.20;5.57;;;;;;;;;;4905503;29;20238;-51
2024/01/10 00:08:52;;;;;;;20.53;5.80;;;;;;;;;;4896090;29;20203;-51
2024/01/10 00:11:18;;;;;;;18.77;7.00;;;;;;;;;;4900435;29;20726;-52
2024/01/10 00:13:44;;;;;;;20.97;6.77;;;;;;;;;;4905038;29;20447;-53
2024/01/10 00:16:13;;;;;;;19.97;6.03;;;;;;;;;;4906070;29;20567;-51
2024/01/10 00:18:40;;;;;;;18.17;5.77;;;;;;;;;;4913466;29;20472;-51
2024/01/10 00:21:06;;;;;;;17.70;6.13;;;;;;;;;;4902753;29;20425;-51
2024/01/10 00:23:32;;;;;;;17.53;6.17;;;;;;;;;;4901760;29;20424;-54
2024/01/10 00:25:58;;;;;;;16.37;5.63;;;;;;;;;;4894979;29;20951;-53
2024/01/10 00:28:24;;;;;;;24.37;6.20;;;;;;;;;;4898818;29;20315;-53
2024/01/10 00:30:50;;;;;;;22.07;6.70;;;;;;;;;;4904915;29;20193;-53
2024/01/10 00:33:16;;;;;;;23.37;6.50;;;;;;;;;;4903729;29;20827;-52
2024/01/10 00:35:42;;;;;;;23.77;6.40;;;;;;;;;;4908827;29;20483;-51
2024/01/10 00:38:09;;;;;;;15.53;6.03;;;;;;;;;;4905380;29;20423;-50
2024/01/10 00:40:35;;;;;;;16.03;5.43;;;;;;;;;;4914024;29;20923;-51
2024/01/10 00:43:01;;;;;;;17.40;5.93;;;;;;;;;;4914209;29;20444;-51
2024/01/10 00:45:27;;;;;;;14.63;5.43;;;;;;;;;;4911874;29;20981;-54
2024/01/10 00:47:53;;;;;;;17.47;5.97;;;;;;;;;;4907378;29;20503;-53
2024/01/10 00:50:19;;;;;;;20.83;6.17;;;;;;;;;;4911816;29;20240;-52
2024/01/10 00:52:45;;;;;;;16.67;6.27;;;;;;;;;;4907845;29;20857;-52
2024/01/10 00:55:11;;;;;;;14.93;5.27;;;;;;;;;;4904653;29;20204;-51
2024/01/10 00:57:40;;;;;;;18.50;5.90;;;;;;;;;;4906139;29;20524;-52
2024/01/10 01:00:07;;;;;;;21.00;6.47;;;;;;;;;;4916899;29;20676;-53
2024/01/10 01:02:33;;;;;;;20.83;6.00;;;;;;;;;;4917263;29;20809;-51
2024/01/10 01:04:59;;;;;;;23.90;6.60;;;;;;;;;;4900565;29;20415;-51
2024/01/10 01:07:25;;;;;;;18.30;6.87;;;;;;;;;;4916433;29;20218;-52
2024/01/10 01:09:51;;;;;;;22.80;7.00;;;;;;;;;;4899466;29;20197;-53
2024/01/10 01:12:16;;;;;;;17.77;6.63;;;;;;;;;;4898105;29;20189;-52
2024/01/10 01:14:43;;;;;;;18.20;6.03;;;;;;;;;;4905831;29;20227;-50
2024/01/10 01:17:09;;;;;;;17.13;6.50;;;;;;;;;;4916915;29;20203;-54
2024/01/10 01:19:35;;;;;;;18.00;7.00;;;;;;;;;;4908805;29;20434;-51
2024/01/10 01:22:01;;;;;;;19.53;6.80;;;;;;;;;;4905477;29;20268;-51
2024/01/10 01:24:26;;;;;;;15.93;5.63;;;;;;;;;;4903682;29;20198;-51
2024/01/10 01:26:52;;;;;;;21.00;6.23;;;;;;;;;;4916265;29;20572;-53
2024/01/10 01:29:19;;;;;;;17.80;5.70;;;;;;;;;;4916463;29;20195;-51
2024/01/10 01:31:45;;;;;;;23.47;6.53;;;;;;;;;;4900764;29;20214;-52
2024/01/10 01:34:12;;;;;;;17.70;6.30;;;;;;;;;;4912054;29;20421;-52
2024/01/10 01:36:38;;;;;;;19.80;6.70;;;;;;;;;;4896719;29;20456;-52
2024/01/10 01:39:04;;;;;;;20.03;6.70;;;;;;;;;;4903823;29;20425;-51
2024/01/10 01:41:30;;;;;;;23.83;7.70;;;;;;;;;;4905347;29;20416;-53
2024/01/10 01:43:56;;;;;;;20.40;6.93;;;;;;;;;;4907550;29;20483;-53
2024/01/10 01:46:22;;;;;;;22.80;7.43;;;;;;;;;;4901936;29;20677;-51
2024/01/10 01:48:49;;;;;;;18.23;6.53;;;;;;;;;;4906340;29;20213;-52
2024/01/10 01:51:16;;;;;;;19.27;6.60;;;;;;;;;;4903520;29;20434;-50
2024/01/10 01:53:43;;;;;;;20.90;6.00;;;;;;;;;;4913009;29;20420;-50
2024/01/10 01:56:09;;;;;;;20.90;6.83;;;;;;;;;;4907483;29;20479;-50
2024/01/10 01:58:36;;;;;;;22.53;6.77;;;;;;;;;;4916033;29;20828;-50
2024/01/10 02:01:05;;;;;;;17.97;6.07;;;;;;;;;;4907933;29;20970;-51
2024/01/10 02:03:34;;;;;;;21.73;7.00;;;;;;;;;;4908116;29;20908;-50
2024/01/10 02:06:03;;;;;;;32.77;7.87;;;;;;;;;;4904332;29;20468;-51
2024/01/10 02:08:29;;;;;;;20.60;6.53;;;;;;;;;;4904516;29;20425;-50
2024/01/10 02:10:55;;;;;;;21.33;6.27;;;;;;;;;;4912661;29;20496;-51
2024/01/10 02:13:21;;;;;;;20.00;7.20;;;;;;;;;;4896852;29;20854;-54
2024/01/10 02:15:47;;;;;;;20.00;7.50;;;;;;;;;;4903494;29;20216;-51
2024/01/10 02:18:14;;;;;;;18.90;7.20;;;;;;;;;;4904218;29;20188;-51
2024/01/10 02:20:40;;;;;;;18.73;6.23;;;;;;;;;;4904411;29;20199;-54
2024/01/10 02:23:06;;;;;;;19.53;6.43;;;;;;;;;;4907420;29;20508;-51
2024/01/10 02:25:32;;;;;;;21.13;6.70;;;;;;;;;;4906933;29;20547;-52
2024/01/10 02:27:58;;;;;;;18.47;6.80;;;;;;;;;;4897050;29;20204;-50
2024/01/10 02:30:24;;;;;;;19.87;6.57;;;;;;;;;;4909992;29;20718;-50
2024/01/10 02:32:50;;;;;;;20.20;6.27;;;;;;;;;;4898160;29;20192;-51
2024/01/10 02:35:16;;;;;;;20.67;6.27;;;;;;;;;;4895484;29;20216;-54
2024/01/10 02:37:41;;;;;;;22.43;7.13;;;;;;;;;;4896156;29;20200;-52
2024/01/10 02:40:08;;;;;;;21.73;6.73;;;;;;;;;;4896427;29;20445;-52
2024/01/10 02:42:34;;;;;;;20.33;6.50;;;;;;;;;;4904246;29;20180;-55
2024/01/10 02:45:00;;;;;;;17.87;5.90;;;;;;;;;;4903284;29;20732;-51
2024/01/10 02:47:26;;;;;;;18.93;6.23;;;;;;;;;;4910118;29;20511;-50
2024/01/10 02:49:52;;;;;;;19.80;6.37;;;;;;;;;;4904437;29;20192;-51
2024/01/10 02:52:19;;;;;;;15.47;5.60;;;;;;;;;;4903763;29;20196;-54
2024/01/10 02:54:46;;;;;;;17.57;6.00;;;;;;;;;;4911459;29;20215;-50
2024/01/10 02:57:12;;;;;;;20.47;6.37;;;;;;;;;;4906856;29;20440;-50
2024/01/10 02:59:38;;;;;;;18.80;6.23;;;;;;;;;;4914880;29;20464;-51
2024/01/10 03:02:04;;;;;;;18.43;6.40;;;;;;;;;;4906684;29;20420;-53
2024/01/10 03:04:30;;;;;;;19.50;6.53;;;;;;;;;;4913812;29;20203;-51
2024/01/10 03:06:56;;;;;;;19.37;6.57;;;;;;;;;;4914192;29;20700;-50
2024/01/10 03:09:23;;;;;;;16.43;5.83;;;;;;;;;;4914500;29;20797;-53
2024/01/10 03:11:49;;;;;;;18.70;5.97;;;;;;;;;;4914379;29;20275;-51
2024/01/10 03:14:15;;;;;;;19.70;6.17;;;;;;;;;;4901760;29;21005;-50
2024/01/10 03:16:41;;;;;;;23.20;6.90;;;;;;;;;;4910471;29;20278;-53
2024/01/10 03:19:07;;;;;;;15.47;6.07;;;;;;;;;;4910606;29;20849;-51
2024/01/10 03:21:33;;;;;;;19.93;6.60;;;;;;;;;;4910032;29;20424;-52
2024/01/10 03:24:00;;;;;;;21.00;6.20;;;;;;;;;;4894643;29;20184;-51
2024/01/10 03:26:26;;;;;;;22.37;6.37;;;;;;;;;;4894671;29;20527;-51
2024/01/10 03:28:52;;;;;;;20.63;6.90;;;;;;;;;;4904618;29;20802;-51
2024/01/10 03:31:19;;;;;;;18.77;6.00;;;;;;;;;;4901172;29;20437;-52
2024/01/10 03:33:45;;;;;;;17.17;6.43;;;;;;;;;;4902878;29;20427;-51
2024/01/10 03:36:15;;;;;;;24.73;6.80;;;;;;;;;;4906083;29;20892;-51
2024/01/10 03:38:41;;;;;;;24.23;6.80;;;;;;;;;;4906090;29;20429;-52
2024/01/10 03:41:07;;;;;;;19.60;7.03;;;;;;;;;;4910511;29;20421;-51
2024/01/10 03:43:33;;;;;;;19.77;6.60;;;;;;;;;;4902812;29;20439;-51
2024/01/10 03:45:59;;;;;;;20.97;6.87;;;;;;;;;;4901903;29;20208;-52
2024/01/10 03:48:25;;;;;;;17.63;6.47;;;;;;;;;;4908609;29;20191;-52
2024/01/10 03:50:51;;;;;;;19.93;6.20;;;;;;;;;;4912053;29;20801;-52
2024/01/10 03:53:17;;;;;;;18.47;6.80;;;;;;;;;;4895062;29;20417;-51
2024/01/10 03:55:43;;;;;;;21.77;6.33;;;;;;;;;;4910253;29;20586;-50
2024/01/10 03:58:09;;;;;;;21.40;6.90;;;;;;;;;;4913646;29;20295;-50
2024/01/10 04:00:35;;;;;;;19.50;6.10;;;;;;;;;;4905467;29;20184;-51
2024/01/10 04:03:01;;;;;;;18.33;5.70;;;;;;;;;;4913093;29;20195;-54
2024/01/10 04:05:27;;;;;;;18.43;6.17;;;;;;;;;;4912718;29;20294;-50
2024/01/10 04:07:53;;;;;;;19.47;6.17;;;;;;;;;;4911884;29;20203;-51
2024/01/10 04:10:19;;;;;;;19.77;5.93;;;;;;;;;;4902896;29;20428;-52
2024/01/10 04:12:45;;;;;;;17.60;5.87;;;;;;;;;;4895296;29;20196;-50
2024/01/10 04:15:11;;;;;;;16.33;5.70;;;;;;;;;;4904996;29;20582;-54
2024/01/10 04:17:37;;;;;;;17.00;5.70;;;;;;;;;;4898200;29;20670;-51
2024/01/10 04:20:03;;;;;;;16.87;6.10;;;;;;;;;;4894383;29;20431;-52
2024/01/10 04:22:29;;;;;;;17.83;5.63;;;;;;;;;;4908919;29;20275;-51
2024/01/10 04:24:58;;;;;;;19.07;6.20;;;;;;;;;;4895326;29;20484;-55
2024/01/10 04:27:24;;;;;;;19.20;6.40;;;;;;;;;;4908211;29;20424;-55
2024/01/10 04:29:50;;;;;;;21.17;6.63;;;;;;;;;;4904101;29;20780;-50
2024/01/10 04:32:16;;;;;;;18.67;6.40;;;;;;;;;;4899261;29;20191;-50
2024/01/10 04:34:42;;;;;;;16.37;5.90;;;;;;;;;;4912788;29;21030;-51
2024/01/10 04:37:08;;;;;;;24.13;6.40;;;;;;;;;;4901858;29;20212;-52
2024/01/10 04:39:34;;;;;;;22.30;7.37;;;;;;;;;;4894894;29;20766;-54
2024/01/10 04:42:00;;;;;;;19.77;6.70;;;;;;;;;;4913050;29;20202;-54
2024/01/10 04:44:26;;;;;;;18.00;6.50;;;;;;;;;;4905809;29;20476;-52
2024/01/10 04:46:52;;;;;;;18.50;5.93;;;;;;;;;;4904649;29;20854;-53
2024/01/10 04:49:18;;;;;;;15.50;6.13;;;;;;;;;;4908201;29;20211;-51
2024/01/10 04:51:45;;;;;;;16.47;6.37;;;;;;;;;;4898001;29;20193;-50
2024/01/10 04:54:11;;;;;;;24.53;5.93;;;;;;;;;;4907741;29;20930;-51
2024/01/10 04:56:37;;;;;;;22.30;7.27;;;;;;;;;;4899078;29;20500;-51
2024/01/10 04:59:04;;;;;;;21.50;6.23;;;;;;;;;;4904924;29;20416;-52
2024/01/10 05:01:30;;;;;;;16.70;6.87;;;;;;;;;;4912987;29;20512;-51
2024/01/10 05:03:56;;;;;;;20.73;6.57;;;;;;;;;;4895178;29;20429;-50
2024/01/10 05:06:22;;;;;;;16.03;6.13;;;;;;;;;;4893284;29;20490;-51
2024/01/10 05:08:48;;;;;;;20.77;6.40;;;;;;;;;;4903015;29;20203;-52
2024/01/10 05:11:15;;;;;;;15.77;6.10;;;;;;;;;;4900752;29;20426;-50
2024/01/10 05:13:41;;;;;;;19.73;6.77;;;;;;;;;;4896457;29;20279;-50
2024/01/10 05:16:07;;;;;;;20.03;6.20;;;;;;;;;;4908103;29;21058;-52
2024/01/10 05:18:33;;;;;;;25.00;6.87;;;;;;;;;;4901776;29;20189;-51
2024/01/10 05:21:00;;;;;;;23.20;6.77;;;;;;;;;;4913045;29;20195;-52
2024/01/10 05:23:26;;;;;;;20.70;7.30;;;;;;;;;;4905360;29;20217;-52
2024/01/10 05:25:51;;;;;;;25.27;7.57;;;;;;;;;;4912344;29;20455;-54
2024/01/10 05:28:18;;;;;;;17.37;6.40;;;;;;;;;;4902294;29;20211;-54
2024/01/10 05:30:44;;;;;;;23.57;7.37;;;;;;;;;;4900470;29;20199;-51
2024/01/10 05:33:10;;;;;;;18.37;6.77;;;;;;;;;;4904765;29;20437;-50
2024/01/10 05:35:36;;;;;;;25.60;6.90;;;;;;;;;;4911806;29;20212;-54
2024/01/10 05:38:02;;;;;;;18.27;6.13;;;;;;;;;;4908317;29;20796;-52
2024/01/10 05:40:32;;;;;;;25.63;7.10;;;;;;;;;;4908395;29;20430;-51
2024/01/10 05:42:59;;;;;;;30.77;8.60;;;;;;;;;;4913770;29;20435;-51
2024/01/10 05:45:25;;;;;;;28.43;7.60;;;;;;;;;;4909889;29;20835;-52
2024/01/10 05:47:51;;;;;;;29.50;8.47;;;;;;;;;;4900233;29;20484;-52
2024/01/10 05:50:17;;;;;;;26.23;8.57;;;;;;;;;;4903536;29;20421;-51
2024/01/10 05:52:43;;;;;;;26.03;8.53;;;;;;;;;;4896936;29;20275;-52
2024/01/10 05:55:09;;;;;;;22.43;7.83;;;;;;;;;;4903985;29;20471;-53
2024/01/10 05:57:38;;;;;;;26.60;7.60;;;;;;;;;;4911692;29;20621;-51
2024/01/10 06:00:09;;;;;;;23.37;6.97;;;;;;;;;;4907988;29;20503;-50
2024/01/10 06:02:35;;;;;;;30.77;8.00;;;;;;;;;;4900820;29;20421;-51
2024/01/10 06:05:04;;;;;;;17.27;6.63;;;;;;;;;;4913333;29;20761;-52
2024/01/10 06:07:31;;;;;;;21.40;6.83;;;;;;;;;;4915467;29;20448;-51
2024/01/10 06:09:57;;;;;;;22.47;7.67;;;;;;;;;;4905581;29;20428;-51
2024/01/10 06:12:23;;;;;;;19.30;6.93;;;;;;;;;;4909844;29;20805;-51
2024/01/10 06:14:49;;;;;;;22.70;7.60;;;;;;;;;;4905575;29;20268;-51
2024/01/10 06:17:15;;;;;;;19.33;7.13;;;;;;;;;;4907496;29;20214;-51
2024/01/10 06:19:42;;;;;;;19.27;7.47;;;;;;;;;;4907288;29;20488;-51
2024/01/10 06:22:07;;;;;;;20.73;7.50;;;;;;;;;;4907536;29;20416;-51
2024/01/10 06:24:33;;;;;;;21.13;7.40;;;;;;;;;;4912526;29;20487;-51
2024/01/10 06:26:59;;;;;;;22.97;7.93;;;;;;;;;;4914932;29;20216;-52
2024/01/10 06:29:25;;;;;;;20.53;7.80;;;;;;;;;;4901667;29;20195;-51
2024/01/10 06:31:51;;;;;;;24.10;7.30;;;;;;;;;;4905344;29;20192;-51
2024/01/10 06:34:17;;;;;;;26.97;9.00;;;;;;;;;;4910269;29;20535;-53
2024/01/10 06:36:44;;;;;;;25.03;7.87;;;;;;;;;;4911154;29;20484;-51
2024/01/10 06:39:13;;;;;;;19.47;7.17;;;;;;;;;;4899997;29;20199;-53
2024/01/10 06:41:40;;;;;;;26.03;8.70;;;;;;;;;;4899674;29;20426;-52
2024/01/10 06:44:06;;;;;;;27.60;8.70;;;;;;;;;;4896128;29;20799;-51
2024/01/10 06:46:33;;;;;;;24.17;8.33;;;;;;;;;;4909977;29;20459;-51
2024/01/10 06:48:59;;;;;;;27.07;8.60;;;;;;;;;;4896712;29;20433;-52
2024/01/10 06:51:26;;;;;;;28.10;8.87;;;;;;;;;;4909366;29;20443;-52
2024/01/10 06:53:52;;;;;;;28.77;7.97;;;;;;;;;;4914722;29;20258;-52
2024/01/10 06:56:19;;;;;;;24.33;7.97;;;;;;;;;;4913145;29;20485;-52
2024/01/10 06:58:45;;;;;;;25.43;8.87;;;;;;;;;;4914166;29;20436;-51
2024/01/10 07:01:14;;;;;;;26.80;8.93;;;;;;;;;;4903466;29;20931;-52
2024/01/10 07:03:41;;;;;;;29.07;9.77;;;;;;;;;;4903463;29;20913;-54
2024/01/10 07:06:06;;;;;;;27.17;8.67;;;;;;;;;;4905861;29;20456;-54
2024/01/10 07:08:32;;;;;;;22.27;8.63;;;;;;;;;;4899922;29;20988;-53
2024/01/10 07:10:58;;;;;;;26.67;8.17;;;;;;;;;;4903460;29;20583;-54
2024/01/10 07:13:24;;;;;;;28.43;9.27;;;;;;;;;;4901264;29;20282;-54
2024/01/10 07:15:52;;;;;;;22.40;7.33;;;;;;;;;;4898216;29;20221;-54
2024/01/10 07:18:18;;;;;;;21.47;8.20;;;;;;;;;;4906587;29;20431;-54
2024/01/10 07:20:44;;;;;;;25.07;7.70;;;;;;;;;;4898426;29;20428;-56
2024/01/10 07:23:10;;;;;;;24.47;8.70;;;;;;;;;;4895477;29;20275;-51
2024/01/10 07:25:37;;;;;;;34.73;8.40;;;;;;;;;;4909543;29;20211;-52
2024/01/10 07:28:03;;;;;;;24.40;7.67;;;;;;;;;;4898433;29;20222;-51
2024/01/10 07:30:32;;;;;;;27.70;8.73;;;;;;;;;;4912223;29;20814;-50
2024/01/10 07:32:59;;;;;;;27.67;9.13;;;;;;;;;;4906464;29;20457;-53
2024/01/10 07:35:27;;;;;;;27.43;10.43;;;;;;;;;;4906440;29;20478;-50
2024/01/10 07:37:53;;;;;;;32.43;9.73;;;;;;;;;;4905820;29;20790;-54
2024/01/10 07:40:19;;;;;;;27.63;8.87;;;;;;;;;;4905384;29;20431;-51
2024/01/10 07:42:45;;;;;;;32.47;9.07;;;;;;;;;;4904956;29;20251;-50
2024/01/10 07:45:11;;;;;;;26.20;8.47;;;;;;;;;;4905238;29;20424;-53
2024/01/10 07:47:38;;;;;;;31.63;8.63;;;;;;;;;;4905949;29;20436;-53
2024/01/10 07:50:14;;;;;;;27.83;8.57;;;;;;;;;;4902007;29;20420;-53
2024/01/10 07:52:40;;;;;;;37.23;10.33;;;;;;;;;;4894225;29;20440;-50
2024/01/10 07:55:06;;;;;;;28.83;9.77;;;;;;;;;;4908887;29;20477;-54
2024/01/10 07:57:33;;;;;;;24.50;9.50;;;;;;;;;;4902317;29;20439;-52
2024/01/10 08:00:00;;;;;;;40.03;10.80;;;;;;;;;;4901852;29;20457;-52
2024/01/10 08:02:25;;;;;;;35.83;11.90;;;;;;;;;;4901788;29;20421;-52
2024/01/10 08:04:52;;;;;;;29.77;10.50;;;;;;;;;;4909926;29;20439;-50
2024/01/10 08:07:19;;;;;;;35.97;11.77;;;;;;;;;;4905010;29;20261;-53
2024/01/10 08:09:45;;;;;;;37.93;11.50;;;;;;;;;;4904862;29;20429;-51
2024/01/10 08:12:14;;;;;;;36.80;11.63;;;;;;;;;;4905601;29;20432;-52
2024/01/10 08:14:40;;;;;;;39.07;11.90;;;;;;;;;;4904609;29;20583;-51
2024/01/10 08:17:06;;;;;;;33.93;11.73;;;;;;;;;;4897357;29;20454;-51
2024/01/10 08:19:33;;;;;;;35.63;11.67;;;;;;;;;;4912432;29;20203;-53
2024/01/10 08:21:59;;;;;;;32.13;11.23;;;;;;;;;;4903058;29;20523;-52
2024/01/10 08:24:25;;;;;;;32.73;11.67;;;;;;;;;;4906743;29;20511;-50
2024/01/10 08:26:54;;;;;;;38.27;11.87;;;;;;;;;;4903490;29;20208;-52
2024/01/10 08:29:20;;;;;;;36.10;12.37;;;;;;;;;;4898885;29;20801;-54
2024/01/10 08:31:47;;;;;;;31.73;11.70;;;;;;;;;;4904726;29;20420;-52
2024/01/10 08:34:13;;;;;;;37.13;12.53;;;;;;;;;;4908599;29;20469;-53
2024/01/10 08:36:39;;;;;;;42.70;13.27;;;;;;;;;;4908182;29;20479;-52
2024/01/10 08:39:06;;;;;;;55.70;16.50;;;;;;;;;;4912679;29;20287;-49
2024/01/10 08:41:32;;;;;;;55.00;16.90;;;;;;;;;;4906460;29;20413;-53
2024/01/10 08:43:58;;;;;;;58.47;16.60;;;;;;;;;;4901618;29;20707;-55
2024/01/10 08:46:27;;;;;;;55.67;17.50;;;;;;;;;;4892983;29;20864;-51
2024/01/10 08:48:53;;;;;;;65.17;17.70;;;;;;;;;;4903928;29;20578;-54
2024/01/10 08:51:19;;;;;;;57.33;19.80;;;;;;;;;;4915970;29;20486;-52
2024/01/10 08:53:45;;;;;;;55.30;19.70;;;;;;;;;;4907875;29;20427;-52
2024/01/10 08:56:11;;;;;;;53.53;17.60;;;;;;;;;;4911850;29;20490;-53
2024/01/10 08:58:37;;;;;;;51.70;16.90;;;;;;;;;;4912269;29;20251;-52
2024/01/10 09:01:08;;;;;;;32.73;11.80;;;;;;;;;;4908133;29;20490;-52
2024/01/10 09:03:34;;;;;;;34.80;12.03;;;;;;;;;;4901855;29;20428;-51
2024/01/10 09:06:00;;;;;;;34.90;12.60;;;;;;;;;;4914016;29;20482;-53
2024/01/10 09:08:26;;;;;;;39.07;12.33;;;;;;;;;;4910153;29;20467;-51
2024/01/10 09:10:52;;;;;;;42.47;12.67;;;;;;;;;;4898164;29;20858;-52
2024/01/10 09:13:18;;;;;;;35.33;12.83;;;;;;;;;;4906825;29;20187;-50
2024/01/10 09:15:44;;;;;;;39.20;13.57;;;;;;;;;;4914951;29;20262;-52
2024/01/10 09:18:10;;;;;;;46.27;16.60;;;;;;;;;;4908148;29;20184;-51
2024/01/10 09:20:36;;;;;;;49.10;17.90;;;;;;;;;;4909179;29;20420;-52
2024/01/10 09:23:02;;;;;;;42.13;16.77;;;;;;;;;;4896948;29;20189;-54
2024/01/10 09:25:28;;;;;;;55.40;17.97;;;;;;;;;;4904090;29;20456;-54
2024/01/10 09:27:54;;;;;;;45.93;17.00;;;;;;;;;;4913800;29;20908;-55
2024/01/10 09:30:20;;;;;;;52.10;18.03;;;;;;;;;;4903318;29;20487;-53
2024/01/10 09:32:46;;;;;;;41.93;16.90;;;;;;;;;;4904854;29;20191;-53
2024/01/10 09:35:12;;;;;;;47.77;17.40;;;;;;;;;;4895949;29;20464;-51
2024/01/10 09:37:39;;;;;;;53.97;17.63;;;;;;;;;;4903953;29;20467;-51
2024/01/10 09:40:08;;;;;;;54.87;19.33;;;;;;;;;;4907631;29;20444;-53
2024/01/10 09:42:36;;;;;;;52.63;17.30;;;;;;;;;;4908714;29;20439;-51
2024/01/10 09:45:03;;;;;;;38.93;14.13;;;;;;;;;;4895684;29;20425;-52
2024/01/10 09:47:31;;;;;;;38.17;14.83;;;;;;;;;;4903951;29;20494;-52
2024/01/10 09:49:57;;;;;;;44.33;16.60;;;;;;;;;;4911565;29;20957;-53
2024/01/10 09:52:27;;;;;;;48.50;17.50;;;;;;;;;;4908454;29;20502;-51
2024/01/10 09:54:55;;;;;;;56.97;19.07;;;;;;;;;;4906667;29;20598;-50
2024/01/10 09:57:23;;;;;;;53.30;18.23;;;;;;;;;;4913628;29;20449;-52
2024/01/10 09:59:51;;;;;;;54.07;16.93;;;;;;;;;;4904961;29;20517;-52
2024/01/10 10:02:17;;;;;;;44.10;16.23;;;;;;;;;;4896118;29;20485;-54
2024/01/10 10:04:45;;;;;;;43.03;16.43;;;;;;;;;;4908987;29;20419;-54
2024/01/10 10:07:12;;;;;;;41.13;15.27;;;;;;;;;;4907920;29;20591;-54
2024/01/10 10:09:38;;;;;;;31.20;13.73;;;;;;;;;;4900185;29;20443;-56
2024/01/10 10:12:04;;;;;;;41.07;14.37;;;;;;;;;;4911594;29;20188;-52
2024/01/10 10:14:30;;;;;;;43.70;14.40;;;;;;;;;;4895403;29;20652;-52
2024/01/10 10:16:56;;;;;;;33.93;14.70;;;;;;;;;;4913300;29;20867;-52
2024/01/10 10:19:23;;;;;;;39.90;14.43;;;;;;;;;;4914712;29;20425;-53
2024/01/10 10:21:49;;;;;;;43.70;14.90;;;;;;;;;;4906221;29;20286;-55
2024/01/10 10:24:16;;;;;;;43.83;15.10;;;;;;;;;;4903545;29;20445;-53
2024/01/10 10:26:42;;;;;;;41.27;17.13;;;;;;;;;;4910764;29;20753;-50
2024/01/10 10:29:09;;;;;;;48.60;17.57;;;;;;;;;;4903561;29;20473;-54
2024/01/10 10:31:35;;;;;;;51.87;19.50;;;;;;;;;;4902425;29;20199;-51
2024/01/10 10:34:02;;;;;;;52.33;19.97;;;;;;;;;;4914564;29;20424;-54
2024/01/10 10:36:28;;;;;;;51.77;19.30;;;;;;;;;;4908177;29;20493;-53
2024/01/10 10:38:54;;;;;;;56.00;19.67;;;;;;;;;;4904600;29;20490;-52
2024/01/10 10:41:20;;;;;;;43.83;17.73;;;;;;;;;;4906756;29;20427;-52
2024/01/10 10:43:47;;;;;;;52.67;17.53;;;;;;;;;;4914391;29;20210;-51
2024/01/10 10:46:13;;;;;;;49.60;17.83;;;;;;;;;;4913566;29;20243;-53
2024/01/10 10:48:39;;;;;;;49.67;17.70;;;;;;;;;;4906320;29;20959;-52
2024/01/10 10:51:06;;;;;;;42.13;16.13;;;;;;;;;;4911316;29;20432;-53
2024/01/10 10:53:34;;;;;;;49.37;16.83;;;;;;;;;;4901553;29;21303;-51
2024/01/10 10:56:01;;;;;;;54.73;16.63;;;;;;;;;;4897729;29;20484;-50
2024/01/10 10:58:27;;;;;;;48.40;18.20;;;;;;;;;;4914216;29;20898;-56
2024/01/10 11:00:53;;;;;;;48.30;17.03;;;;;;;;;;4912836;29;20455;-52
2024/01/10 11:03:21;;;;;;;46.43;16.90;;;;;;;;;;4907612;29;20428;-52
2024/01/10 11:05:47;;;;;;;45.33;17.20;;;;;;;;;;4903825;29;20468;-55
2024/01/10 11:08:15;;;;;;;52.37;17.60;;;;;;;;;;4906495;29;20424;-52
2024/01/10 11:10:42;;;;;;;41.97;16.10;;;;;;;;;;4905901;29;20480;-52
2024/01/10 11:13:11;;;;;;;42.37;16.30;;;;;;;;;;4894787;29;20787;-53
2024/01/10 11:15:56;;;;;;;50.73;19.00;;;;;;;;;;4908916;29;20562;-52
2024/01/10 11:18:28;;;;;;;50.47;17.80;;;;;;;;;;4905820;29;20180;-53
2024/01/10 11:21:29;;;;;;;50.63;18.70;;;;;;;;;;4913468;29;20629;-52
2024/01/10 11:23:56;;;;;;;47.90;16.70;;;;;;;;;;4865586;29;20200;-50
2024/01/10 11:26:22;;;;;;;46.63;17.17;;;;;;;;;;4892491;29;20259;-53
2024/01/10 11:28:48;;;;;;;47.37;17.17;;;;;;;;;;4902275;29;20197;-53
2024/01/10 11:31:15;;;;;;;39.77;15.67;;;;;;;;;;4901591;29;20193;-51
2024/01/10 11:33:43;;;;;;;43.73;15.80;;;;;;;;;;4909688;29;20184;-52
2024/01/10 11:36:10;;;;;;;37.30;14.97;;;;;;;;;;4901580;29;20420;-53
2024/01/10 11:38:53;;;;;;;40.03;15.70;;;;;;;;;;4894629;29;20657;-53
2024/01/10 11:41:32;;;;;;;45.97;16.23;;;;;;;;;;4905372;29;20191;-55
2024/01/10 11:44:17;;;;;;;48.90;18.10;;;;;;;;;;4905109;29;20254;-55
2024/01/10 11:46:54;;;;;;;40.73;16.07;;;;;;;;;;4912628;29;20226;-56
2024/01/10 11:49:21;;;;;;;36.23;14.73;;;;;;;;;;4906996;29;20541;-53
2024/01/10 11:51:48;;;;;;;39.73;15.23;;;;;;;;;;4905115;29;20199;-52
2024/01/10 11:54:33;;;;;;;37.10;14.13;;;;;;;;;;4905263;29;20219;-51
2024/01/10 11:57:01;;;;;;;40.70;15.20;;;;;;;;;;4902287;29;20219;-51
2024/01/10 11:59:27;;;;;;;38.77;14.63;;;;;;;;;;4907142;29;20188;-51
2024/01/10 12:01:54;;;;;;;43.70;15.93;;;;;;;;;;4912935;29;20230;-51
2024/01/10 12:04:21;;;;;;;38.60;16.03;;;;;;;;;;4904858;29;20260;-53
2024/01/10 12:06:47;;;;;;;42.90;15.23;;;;;;;;;;4904660;29;20223;-53
2024/01/10 12:09:14;;;;;;;39.60;15.43;;;;;;;;;;4912974;29;20180;-52
2024/01/10 12:11:41;;;;;;;35.47;14.70;;;;;;;;;;4911438;29;20344;-50
2024/01/10 12:14:07;;;;;;;37.17;14.97;;;;;;;;;;4904602;29;20727;-54
2024/01/10 12:16:33;;;;;;;42.50;15.47;;;;;;;;;;4912109;29;20299;-56
2024/01/10 12:18:59;;;;;;;40.53;15.57;;;;;;;;;;4899647;29;20291;-53
2024/01/10 12:21:25;;;;;;;41.17;14.40;;;;;;;;;;4900969;29;20188;-53
2024/01/10 12:23:51;;;;;;;38.67;15.37;;;;;;;;;;4906033;29;20198;-51
2024/01/10 12:26:18;;;;;;;38.20;15.53;;;;;;;;;;4907714;29;20664;-56
2024/01/10 12:28:54;;;;;;;40.37;15.63;;;;;;;;;;4896241;29;20248;-55
2024/01/10 12:31:22;;;;;;;38.10;15.20;;;;;;;;;;4908360;29;20242;-53
2024/01/10 12:33:48;;;;;;;38.73;15.77;;;;;;;;;;4912316;29;20237;-52
2024/01/10 12:36:14;;;;;;;39.73;16.03;;;;;;;;;;4904500;29;20271;-54
2024/01/10 12:38:40;;;;;;;37.10;14.37;;;;;;;;;;4905363;29;20200;-52
2024/01/10 12:41:09;;;;;;;36.40;13.83;;;;;;;;;;4896263;29;20739;-53
2024/01/10 12:43:35;;;;;;;42.47;15.37;;;;;;;;;;4904826;29;20535;-53
2024/01/10 12:46:08;;;;;;;39.60;14.37;;;;;;;;;;4901907;29;20216;-52
2024/01/10 12:48:37;;;;;;;39.43;14.10;;;;;;;;;;4901633;29;20283;-52
2024/01/10 12:51:07;;;;;;;38.87;13.87;;;;;;;;;;4895889;29;20192;-50
2024/01/10 12:53:37;;;;;;;44.90;15.13;;;;;;;;;;4906682;29;20196;-53
2024/01/10 12:56:04;;;;;;;40.33;14.90;;;;;;;;;;4895146;29;20220;-53
2024/01/10 12:58:30;;;;;;;38.63;14.73;;;;;;;;;;4904726;29;20589;-52
2024/01/10 13:00:56;;;;;;;38.83;15.30;;;;;;;;;;4904846;29;20240;-55
2024/01/10 13:03:23;;;;;;;37.57;15.70;;;;;;;;;;4904609;29;20196;-53
2024/01/10 13:05:49;;;;;;;35.37;13.97;;;;;;;;;;4896020;29;20776;-50
2024/01/10 13:08:15;;;;;;;38.57;15.37;;;;;;;;;;4912433;29;20188;-52
2024/01/10 13:10:42;;;;;;;35.10;14.53;;;;;;;;;;4905341;29;20196;-50
2024/01/10 13:13:08;;;;;;;37.43;14.20;;;;;;;;;;4901131;29;20189;-53
2024/01/10 13:15:34;;;;;;;37.73;15.20;;;;;;;;;;4902165;29;20220;-55
2024/01/10 13:18:00;;;;;;;38.40;14.40;;;;;;;;;;4901091;29;20249;-54
2024/01/10 13:20:27;;;;;;;31.57;13.27;;;;;;;;;;4898928;29;20205;-51
2024/01/10 13:22:53;;;;;;;37.23;14.73;;;;;;;;;;4893285;29;20207;-54
2024/01/10 13:25:23;;;;;;;41.27;15.07;;;;;;;;;;4892636;29;20216;-51
2024/01/10 13:27:52;;;;;;;36.33;14.60;;;;;;;;;;4901114;29;20203;-52
2024/01/10 13:30:18;;;;;;;37.33;14.47;;;;;;;;;;4904497;29;20187;-51
2024/01/10 13:32:46;;;;;;;36.83;14.57;;;;;;;;;;4912104;29;20640;-52
2024/01/10 13:35:13;;;;;;;35.30;14.00;;;;;;;;;;4906521;29;20215;-52
2024/01/10 13:37:39;;;;;;;33.40;14.13;;;;;;;;;;4908762;29;20219;-52
2024/01/10 13:40:07;;;;;;;38.93;14.87;;;;;;;;;;4914544;29;20723;-53
2024/01/10 13:42:33;;;;;;;37.83;14.93;;;;;;;;;;4915263;29;20195;-53
2024/01/10 13:44:59;;;;;;;38.40;15.07;;;;;;;;;;4906717;29;20314;-53
2024/01/10 13:47:25;;;;;;;38.27;13.53;;;;;;;;;;4902684;29;20711;-54
2024/01/10 13:49:51;;;;;;;40.23;13.93;;;;;;;;;;4896196;29;20208;-56
2024/01/10 13:52:17;;;;;;;39.37;14.57;;;;;;;;;;4896608;29;20462;-54
2024/01/10 13:54:43;;;;;;;38.87;15.03;;;;;;;;;;4903664;29;20718;-50
2024/01/10 13:57:09;;;;;;;42.57;15.03;;;;;;;;;;4899352;29;20292;-52
2024/01/10 13:59:35;;;;;;;42.53;15.63;;;;;;;;;;4901009;29;20188;-50
2024/01/10 14:02:01;;;;;;;42.67;16.13;;;;;;;;;;4904310;29;20295;-52
2024/01/10 14:04:27;;;;;;;38.63;15.03;;;;;;;;;;4908760;29;20187;-53
2024/01/10 14:06:53;;;;;;;31.63;14.73;;;;;;;;;;4905863;29;20768;-55
2024/01/10 14:09:19;;;;;;;35.83;14.10;;;;;;;;;;4904247;29;20723;-54
2024/01/10 14:11:46;;;;;;;34.20;13.80;;;;;;;;;;4911812;29;20191;-54
2024/01/10 14:14:12;;;;;;;37.33;14.00;;;;;;;;;;4904396;29;20203;-52
2024/01/10 14:16:39;;;;;;;35.90;13.83;;;;;;;;;;4910322;29;20224;-53
2024/01/10 14:19:05;;;;;;;32.07;13.70;;;;;;;;;;4905404;29;20222;-52
2024/01/10 14:21:31;;;;;;;40.20;13.97;;;;;;;;;;4904115;29;20212;-55